createdAt,value
2022-11-17T00:02:12.894Z,25.97
2022-11-17T00:04:39.999Z,25.53
2022-11-17T00:07:07.137Z,22.60
2022-11-17T00:09:34.251Z,23.03
2022-11-17T00:12:22.690Z,20.13
2022-11-17T00:14:50.059Z,24.77
2022-11-17T00:17:17.152Z,22.00
2022-11-17T00:20:02.721Z,29.63
2022-11-17T00:22:32.299Z,24.40
2022-11-17T00:24:59.471Z,22.17
2022-11-17T00:27:26.517Z,20.93
2022-11-17T00:29:53.629Z,24.33
2022-11-17T00:32:39.201Z,18.83
2022-11-17T00:35:06.755Z,25.97
2022-11-17T00:37:37.862Z,25.87
2022-11-17T00:40:05.647Z,20.80
2022-11-17T00:42:32.677Z,19.23
2022-11-17T00:44:59.758Z,20.83
2022-11-17T00:47:26.811Z,19.37
2022-11-17T00:49:53.885Z,22.23
2022-11-17T00:52:20.951Z,27.33
2022-11-17T00:54:48.005Z,19.27
2022-11-17T00:57:15.089Z,19.53
2022-11-17T00:59:42.137Z,18.90
2022-11-17T01:02:09.200Z,20.30
2022-11-17T01:04:36.285Z,19.50
2022-11-17T01:07:03.353Z,19.23
2022-11-17T01:09:30.464Z,21.57
2022-11-17T01:11:57.532Z,23.83
2022-11-17T01:14:26.815Z,24.87
2022-11-17T01:16:54.379Z,23.83
2022-11-17T01:19:22.148Z,24.03
2022-11-17T01:21:49.559Z,21.60
2022-11-17T01:24:17.047Z,19.90
2022-11-17T01:26:45.060Z,20.73
2022-11-17T01:29:14.000Z,18.83
2022-11-17T01:31:43.338Z,18.50
2022-11-17T01:34:10.839Z,19.07
2022-11-17T01:36:58.007Z,23.30
2022-11-17T01:39:25.877Z,19.70
2022-11-17T01:41:53.637Z,18.57
2022-11-17T01:44:39.476Z,20.00
2022-11-17T01:47:10.986Z,19.87
2022-11-17T01:49:38.074Z,20.30
2022-11-17T01:52:07.920Z,18.50
2022-11-17T01:54:36.134Z,21.83
2022-11-17T01:57:05.337Z,21.60
2022-11-17T01:59:35.423Z,20.03
2022-11-17T02:02:02.662Z,19.23
2022-11-17T02:04:31.440Z,25.10
2022-11-17T02:07:21.861Z,21.33
2022-11-17T02:09:49.416Z,21.90
2022-11-17T02:12:17.170Z,18.80
2022-11-17T02:14:45.394Z,20.57
2022-11-17T02:17:14.500Z,22.17
2022-11-17T02:19:42.970Z,20.97
2022-11-17T02:22:28.869Z,22.03
2022-11-17T02:24:55.931Z,18.73
2022-11-17T02:27:28.688Z,19.60
2022-11-17T02:30:19.146Z,18.23
2022-11-17T02:33:03.707Z,19.10
2022-11-17T02:35:49.137Z,17.83
2022-11-17T02:38:18.972Z,20.23
2022-11-17T02:40:58.943Z,22.37
2022-11-17T02:43:47.340Z,19.07
2022-11-17T02:46:18.974Z,20.83
2022-11-17T02:48:48.707Z,22.17
2022-11-17T02:51:18.359Z,21.50
2022-11-17T02:53:45.596Z,21.93
2022-11-17T02:56:12.699Z,19.87
2022-11-17T02:58:39.756Z,18.00
2022-11-17T03:01:17.523Z,20.03
2022-11-17T03:03:57.443Z,22.37
2022-11-17T03:06:35.963Z,19.40
2022-11-17T03:09:21.823Z,20.73
2022-11-17T03:11:51.059Z,18.23
2022-11-17T03:14:18.145Z,18.40
2022-11-17T03:16:53.976Z,18.23
2022-11-17T03:19:27.595Z,19.80
2022-11-17T03:22:04.185Z,23.20
2022-11-17T03:24:33.845Z,19.50
2022-11-17T03:27:06.716Z,19.87
2022-11-17T03:29:35.201Z,20.07
2022-11-17T03:32:04.060Z,21.80
2022-11-17T03:34:35.047Z,19.73
2022-11-17T03:37:04.360Z,21.53
2022-11-17T03:39:33.393Z,22.93
2022-11-17T03:42:06.646Z,19.73
2022-11-17T03:44:35.124Z,22.53
2022-11-17T03:47:03.588Z,23.13
2022-11-17T03:49:38.775Z,24.80
2022-11-17T03:52:05.896Z,27.00
2022-11-17T03:54:33.637Z,24.00
2022-11-17T03:57:05.396Z,22.90
2022-11-17T03:59:53.077Z,22.90
2022-11-17T04:02:21.101Z,24.83
2022-11-17T04:05:06.603Z,24.53
2022-11-17T04:07:34.765Z,23.60
2022-11-17T04:10:01.857Z,26.47
2022-11-17T04:12:47.873Z,22.93
2022-11-17T04:15:33.828Z,25.03
2022-11-17T04:18:00.884Z,25.63
2022-11-17T04:20:35.814Z,27.70
2022-11-17T04:23:11.446Z,25.63
2022-11-17T04:25:57.242Z,26.30
2022-11-17T04:28:37.075Z,28.10
2022-11-17T04:31:20.806Z,29.97
2022-11-17T04:33:48.969Z,28.60
2022-11-17T04:36:17.649Z,27.03
2022-11-17T04:38:45.776Z,29.87
2022-11-17T04:41:32.245Z,30.63
2022-11-17T04:43:59.436Z,31.70
2022-11-17T04:46:27.025Z,31.10
2022-11-17T04:48:54.819Z,29.00
2022-11-17T04:51:22.501Z,26.70
2022-11-17T04:53:49.926Z,32.00
2022-11-17T04:56:17.296Z,31.90
2022-11-17T04:58:44.375Z,28.23
2022-11-17T05:01:14.598Z,27.50
2022-11-17T05:03:50.904Z,21.33
2022-11-17T05:06:19.534Z,25.40
2022-11-17T05:08:46.962Z,27.83
2022-11-17T05:11:33.758Z,32.43
2022-11-17T05:14:01.175Z,30.10
2022-11-17T05:16:47.251Z,27.80
2022-11-17T05:19:16.833Z,27.87
2022-11-17T05:21:43.975Z,28.37
2022-11-17T05:24:11.102Z,29.27
2022-11-17T05:26:38.771Z,30.77
2022-11-17T05:29:06.689Z,28.60
2022-11-17T05:31:34.339Z,35.37
2022-11-17T05:34:01.892Z,30.00
2022-11-17T05:36:29.318Z,33.63
2022-11-17T05:38:56.850Z,30.27
2022-11-17T05:41:24.623Z,31.50
2022-11-17T05:43:52.134Z,29.90
2022-11-17T05:46:19.880Z,28.50
2022-11-17T05:48:49.844Z,28.17
2022-11-17T05:51:17.993Z,29.37
2022-11-17T05:53:45.172Z,29.97
2022-11-17T05:56:15.116Z,30.80
2022-11-17T05:58:44.113Z,32.43
2022-11-17T06:01:12.469Z,36.23
2022-11-17T06:03:44.521Z,30.67
2022-11-17T06:06:12.124Z,36.80
2022-11-17T06:08:39.176Z,30.63
2022-11-17T06:11:06.284Z,36.77
2022-11-17T06:13:33.751Z,30.33
2022-11-17T06:16:02.857Z,32.03
2022-11-17T06:18:33.537Z,33.10
2022-11-17T06:21:00.710Z,30.10
2022-11-17T06:23:29.592Z,32.23
2022-11-17T06:25:57.931Z,33.00
2022-11-17T06:28:25.692Z,31.53
2022-11-17T06:30:53.985Z,32.73
2022-11-17T06:33:21.284Z,35.17
2022-11-17T06:35:49.168Z,33.37
2022-11-17T06:38:16.275Z,36.73
2022-11-17T06:40:43.336Z,34.80
2022-11-17T06:43:10.500Z,31.53
2022-11-17T06:45:38.568Z,31.67
2022-11-17T06:48:06.231Z,31.83
2022-11-17T06:50:33.782Z,30.77
2022-11-17T06:53:05.044Z,30.17
2022-11-17T06:55:32.170Z,30.00
2022-11-17T06:58:03.100Z,31.03
2022-11-17T07:00:31.090Z,31.53
2022-11-17T07:03:01.833Z,32.67
2022-11-17T07:05:28.969Z,34.27
2022-11-17T07:07:59.677Z,35.33
2022-11-17T07:10:27.192Z,33.43
2022-11-17T07:12:54.432Z,34.53
2022-11-17T07:15:21.917Z,34.07
2022-11-17T07:17:49.160Z,32.83
2022-11-17T07:20:16.566Z,36.83
2022-11-17T07:22:43.735Z,32.07
2022-11-17T07:25:11.493Z,26.43
2022-11-17T07:27:39.067Z,26.30
2022-11-17T07:30:07.127Z,26.07
2022-11-17T07:32:34.961Z,24.60
2022-11-17T07:35:02.108Z,24.97
2022-11-17T07:37:33.401Z,26.93
2022-11-17T07:40:00.983Z,24.33
2022-11-17T07:42:28.073Z,26.37
2022-11-17T07:44:55.258Z,27.00
2022-11-17T07:47:22.354Z,25.67
2022-11-17T07:49:50.042Z,29.50
2022-11-17T07:52:17.133Z,29.63
2022-11-17T07:54:44.270Z,23.60
2022-11-17T07:57:11.443Z,23.03
2022-11-17T07:59:38.605Z,19.53
2022-11-17T08:02:05.720Z,19.07
2022-11-17T08:04:32.830Z,15.73
2022-11-17T08:06:59.992Z,18.37
2022-11-17T08:09:27.182Z,17.53
2022-11-17T08:11:54.390Z,17.20
2022-11-17T08:14:21.518Z,16.53
2022-11-17T08:16:48.630Z,17.13
2022-11-17T08:19:15.768Z,13.63
2022-11-17T08:21:43.068Z,18.67
2022-11-17T08:24:12.435Z,17.40
2022-11-17T08:26:39.538Z,18.73
2022-11-17T08:29:06.956Z,18.53
2022-11-17T08:31:34.065Z,15.60
2022-11-17T08:34:01.181Z,19.93
2022-11-17T08:36:28.320Z,19.17
2022-11-17T08:38:55.399Z,15.63
2022-11-17T08:41:22.523Z,16.27
2022-11-17T08:43:51.738Z,19.73
2022-11-17T08:46:18.852Z,16.30
2022-11-17T08:48:45.928Z,35.93
2022-11-17T08:51:14.712Z,20.13
2022-11-17T08:53:42.824Z,16.80
2022-11-17T08:56:11.008Z,13.27
2022-11-17T08:58:41.967Z,20.37
2022-11-17T09:01:15.479Z,12.20
2022-11-17T09:03:44.135Z,12.57
2022-11-17T09:06:12.497Z,12.70
2022-11-17T09:08:47.659Z,11.20
2022-11-17T09:11:15.577Z,16.20
2022-11-17T09:13:42.787Z,11.70
2022-11-17T09:16:11.357Z,17.87
2022-11-17T09:18:39.327Z,12.97
2022-11-17T09:21:10.210Z,13.13
2022-11-17T09:23:37.854Z,16.33
2022-11-17T09:26:06.638Z,14.90
2022-11-17T09:28:34.191Z,13.60
2022-11-17T09:31:06.499Z,11.63
2022-11-17T09:33:33.627Z,13.97
2022-11-17T09:36:00.985Z,11.47
2022-11-17T09:38:28.126Z,10.80
2022-11-17T09:40:58.333Z,10.77
2022-11-17T09:43:30.127Z,11.10
2022-11-17T09:46:20.261Z,11.50
2022-11-17T09:49:03.832Z,9.70
2022-11-17T09:51:32.472Z,11.57
2022-11-17T09:54:08.499Z,12.23
2022-11-17T09:56:35.831Z,14.63
2022-11-17T09:59:12.012Z,10.87
2022-11-17T10:01:39.474Z,13.37
2022-11-17T10:04:11.431Z,12.07
2022-11-17T10:06:38.601Z,11.43
2022-11-17T10:09:05.698Z,11.90
2022-11-17T10:11:38.181Z,12.17
2022-11-17T10:14:25.491Z,9.53
2022-11-17T10:16:54.164Z,13.27
2022-11-17T10:19:22.682Z,12.37
2022-11-17T10:21:52.535Z,11.43
2022-11-17T10:24:38.383Z,15.93
2022-11-17T10:27:17.894Z,14.40
2022-11-17T10:30:03.633Z,16.03
2022-11-17T10:32:32.776Z,14.90
2022-11-17T10:35:18.177Z,16.87
2022-11-17T10:37:53.077Z,19.10
2022-11-17T10:40:25.271Z,25.33
2022-11-17T10:43:02.227Z,15.63
2022-11-17T10:45:29.671Z,14.60
2022-11-17T10:48:17.021Z,15.97
2022-11-17T10:51:02.592Z,13.43
2022-11-17T10:53:32.973Z,14.03
2022-11-17T10:56:04.785Z,14.00
2022-11-17T10:58:33.072Z,16.73
2022-11-17T11:01:01.987Z,30.50
2022-11-17T11:03:34.122Z,29.87
2022-11-17T11:06:03.131Z,32.40
2022-11-17T11:08:33.177Z,35.37
2022-11-17T11:11:00.817Z,20.90
2022-11-17T11:13:36.460Z,16.33
2022-11-17T11:16:03.791Z,20.80
2022-11-17T11:18:31.629Z,22.87
2022-11-17T11:21:17.527Z,18.40
2022-11-17T11:24:04.931Z,14.03
2022-11-17T11:26:38.171Z,12.47
2022-11-17T11:29:05.460Z,10.07
2022-11-17T11:31:51.415Z,8.67
2022-11-17T11:34:24.801Z,12.57
2022-11-17T11:36:57.251Z,7.23
2022-11-17T11:39:36.971Z,9.53
2022-11-17T11:42:08.313Z,6.63
2022-11-17T11:44:38.645Z,11.10
2022-11-17T11:47:05.795Z,7.37
2022-11-17T11:49:33.059Z,11.53
2022-11-17T11:52:00.574Z,8.93
2022-11-17T11:54:40.135Z,10.03
2022-11-17T11:57:10.367Z,10.20
2022-11-17T11:59:37.493Z,12.63
2022-11-17T12:02:04.634Z,9.40
2022-11-17T12:04:44.877Z,12.00
2022-11-17T12:07:24.571Z,8.27
2022-11-17T12:09:51.713Z,6.77
2022-11-17T12:12:20.335Z,8.30
2022-11-17T12:15:22.870Z,9.63
2022-11-17T12:17:52.721Z,10.03
2022-11-17T12:20:31.905Z,5.67
2022-11-17T12:23:07.925Z,5.27
2022-11-17T12:25:36.507Z,6.73
2022-11-17T12:28:22.352Z,12.80
2022-11-17T12:30:51.667Z,9.63
2022-11-17T12:33:18.796Z,9.67
2022-11-17T12:35:46.072Z,5.30
2022-11-17T12:38:20.019Z,5.10
2022-11-17T12:40:50.995Z,5.20
2022-11-17T12:43:24.369Z,10.10
2022-11-17T12:45:55.452Z,5.13
2022-11-17T12:48:36.489Z,8.47
2022-11-17T12:51:06.631Z,6.63
2022-11-17T12:53:39.360Z,6.90
2022-11-17T12:56:18.990Z,4.07
2022-11-17T12:58:49.132Z,5.87
2022-11-17T13:01:22.322Z,7.20
2022-11-17T13:04:03.177Z,6.80
2022-11-17T13:06:37.522Z,7.37
2022-11-17T13:09:27.407Z,9.27
2022-11-17T13:12:05.430Z,5.73
2022-11-17T13:14:33.466Z,7.47
2022-11-17T13:17:01.323Z,8.50
2022-11-17T13:19:36.244Z,10.33
2022-11-17T13:22:05.751Z,9.43
2022-11-17T13:24:36.610Z,8.03
2022-11-17T13:27:07.424Z,13.47
2022-11-17T13:29:34.716Z,20.07
2022-11-17T13:32:20.177Z,20.03
2022-11-17T13:34:47.927Z,24.07
2022-11-17T13:37:16.274Z,19.53
2022-11-17T13:39:53.882Z,16.53
2022-11-17T13:42:21.097Z,7.73
2022-11-17T13:44:48.325Z,15.23
2022-11-17T13:47:20.692Z,21.67
2022-11-17T13:49:48.264Z,18.77
2022-11-17T13:52:35.256Z,22.20
2022-11-17T13:55:08.990Z,10.83
2022-11-17T13:57:36.083Z,15.30
2022-11-17T14:00:04.189Z,10.47
2022-11-17T14:02:31.471Z,15.43
2022-11-17T14:05:04.450Z,14.40
2022-11-17T14:07:32.701Z,12.30
2022-11-17T14:10:20.107Z,13.87
2022-11-17T14:12:49.956Z,14.27
2022-11-17T14:15:27.357Z,14.57
2022-11-17T14:17:55.826Z,12.47
2022-11-17T14:20:25.958Z,12.53
2022-11-17T14:23:02.099Z,12.50
2022-11-17T14:25:29.598Z,17.77
2022-11-17T14:27:56.742Z,22.77
2022-11-17T14:30:23.894Z,21.50
2022-11-17T14:32:51.059Z,24.47
2022-11-17T14:37:50.293Z,21.50
2022-11-17T14:40:17.948Z,22.80
2022-11-17T14:42:45.448Z,17.97
2022-11-17T14:45:14.296Z,15.10
2022-11-17T14:47:42.105Z,11.23
2022-11-17T14:50:13.298Z,9.10
2022-11-17T14:52:42.370Z,6.93
2022-11-17T14:55:10.272Z,14.73
2022-11-17T14:57:37.431Z,9.67
2022-11-17T15:00:06.060Z,7.50
2022-11-17T15:02:33.554Z,8.43
2022-11-17T15:05:01.118Z,8.50
2022-11-17T15:07:28.935Z,8.10
2022-11-17T15:09:56.090Z,9.50
2022-11-17T15:12:23.205Z,9.77
2022-11-17T15:14:50.372Z,10.40
2022-11-17T15:17:17.618Z,15.20
2022-11-17T15:19:45.260Z,14.37
2022-11-17T15:22:12.772Z,10.07
2022-11-17T15:24:39.854Z,10.10
2022-11-17T15:27:07.033Z,12.90
2022-11-17T15:29:34.110Z,10.43
2022-11-17T15:32:01.268Z,15.23
2022-11-17T15:34:28.619Z,15.63
2022-11-17T15:36:55.729Z,14.07
2022-11-17T15:39:22.906Z,12.83
2022-11-17T15:41:50.810Z,12.33
2022-11-17T15:44:19.031Z,16.47
2022-11-17T15:46:47.858Z,14.10
2022-11-17T15:49:15.591Z,15.87
2022-11-17T15:51:42.870Z,16.20
2022-11-17T15:54:18.521Z,19.07
2022-11-17T15:56:47.483Z,17.13
2022-11-17T15:59:14.866Z,15.30
2022-11-17T16:01:42.294Z,9.63
2022-11-17T16:04:09.435Z,10.63
2022-11-17T16:06:37.671Z,9.87
2022-11-17T16:09:06.446Z,21.53
2022-11-17T16:11:33.604Z,14.03
2022-11-17T16:14:01.108Z,12.83
2022-11-17T16:16:29.995Z,9.53
2022-11-17T16:18:57.296Z,7.83
2022-11-17T16:21:24.811Z,9.13
2022-11-17T16:23:54.552Z,4.37
2022-11-17T16:26:22.261Z,7.87
2022-11-17T16:28:49.375Z,4.00
2022-11-17T16:31:18.858Z,4.80
2022-11-17T16:33:49.994Z,4.70
2022-11-17T16:36:18.029Z,3.97
2022-11-17T16:38:59.830Z,4.37
2022-11-17T16:41:29.473Z,5.90
2022-11-17T16:43:56.723Z,8.20
2022-11-17T16:46:25.403Z,9.93
2022-11-17T16:48:53.368Z,12.93
2022-11-17T16:51:21.107Z,13.23
2022-11-17T16:53:49.074Z,14.30
2022-11-17T16:56:16.517Z,9.67
2022-11-17T16:58:43.614Z,10.10
2022-11-17T17:01:17.139Z,13.17
2022-11-17T17:03:44.520Z,12.70
2022-11-17T17:06:13.244Z,12.27
2022-11-17T17:08:40.736Z,15.13
2022-11-17T17:11:09.055Z,22.30
2022-11-17T17:13:36.531Z,22.77
2022-11-17T17:16:04.829Z,12.27
2022-11-17T17:18:32.215Z,12.07
2022-11-17T17:20:59.394Z,13.77
2022-11-17T17:23:26.585Z,15.57
2022-11-17T17:26:03.222Z,13.93
2022-11-17T17:28:31.669Z,12.03
2022-11-17T17:30:59.154Z,13.87
2022-11-17T17:33:26.600Z,15.83
2022-11-17T17:35:53.823Z,14.93
2022-11-17T17:38:20.941Z,19.07
2022-11-17T17:40:48.047Z,13.73
2022-11-17T17:43:15.150Z,9.30
2022-11-17T17:45:42.266Z,40.57
2022-11-17T17:48:09.431Z,34.30
2022-11-17T17:50:36.525Z,21.27
2022-11-17T17:53:03.654Z,15.47
2022-11-17T17:55:31.042Z,13.50
2022-11-17T17:57:58.186Z,15.77
2022-11-17T18:00:25.326Z,15.23
2022-11-17T18:02:52.477Z,19.90
2022-11-17T18:05:22.533Z,19.37
2022-11-17T18:07:49.789Z,17.00
2022-11-17T18:10:17.243Z,17.13
2022-11-17T18:12:44.435Z,21.73
2022-11-17T18:15:11.795Z,21.77
2022-11-17T18:17:38.917Z,18.70
2022-11-17T18:20:06.333Z,22.70
2022-11-17T18:22:33.486Z,18.87
2022-11-17T18:25:00.596Z,15.33
2022-11-17T18:27:27.697Z,16.53
2022-11-17T18:29:54.870Z,21.57
2022-11-17T18:32:21.959Z,27.93
2022-11-17T18:34:49.117Z,27.30
2022-11-17T18:37:16.213Z,30.37
2022-11-17T18:39:43.325Z,46.87
2022-11-17T18:42:10.427Z,50.27
2022-11-17T18:44:38.853Z,52.13
2022-11-17T18:47:05.999Z,46.37
2022-11-17T18:50:00.962Z,46.10
2022-11-17T18:52:31.410Z,55.10
2022-11-17T18:54:58.738Z,59.17
2022-11-17T18:57:25.820Z,51.53
2022-11-17T18:59:52.914Z,41.57
2022-11-17T19:02:20.011Z,41.33
2022-11-17T19:04:47.119Z,41.70
2022-11-17T19:07:14.328Z,36.03
2022-11-17T19:09:41.552Z,48.77
2022-11-17T19:12:12.455Z,42.50
2022-11-17T19:14:39.578Z,49.10
2022-11-17T19:17:06.801Z,51.63
2022-11-17T19:19:33.897Z,30.23
2022-11-17T19:22:00.991Z,36.37
2022-11-17T19:24:28.068Z,26.80
2022-11-17T19:26:55.262Z,22.53
2022-11-17T19:29:22.818Z,26.33
2022-11-17T19:31:52.405Z,26.10
2022-11-17T19:34:19.611Z,27.93
2022-11-17T19:36:46.712Z,24.27
2022-11-17T19:39:14.792Z,28.83
2022-11-17T19:41:42.457Z,31.37
2022-11-17T19:44:09.974Z,25.17
2022-11-17T19:46:37.228Z,29.50
2022-11-17T19:49:05.875Z,30.03
2022-11-17T19:51:34.005Z,37.87
2022-11-17T19:54:05.473Z,34.67
2022-11-17T19:56:32.645Z,38.67
2022-11-17T19:58:59.952Z,32.63
2022-11-17T20:01:28.352Z,32.10
2022-11-17T20:03:56.160Z,32.13
2022-11-17T20:06:27.003Z,34.63
2022-11-17T20:08:54.550Z,23.57
2022-11-17T20:11:23.159Z,20.63
2022-11-17T20:13:50.814Z,27.27
2022-11-17T20:16:24.360Z,32.23
2022-11-17T20:18:52.667Z,28.90
2022-11-17T20:21:20.252Z,28.73
2022-11-17T20:23:47.861Z,28.23
2022-11-17T20:26:16.510Z,27.93
2022-11-17T20:28:43.786Z,31.27
2022-11-17T20:31:14.720Z,34.30
2022-11-17T20:33:42.640Z,34.03
2022-11-17T20:36:11.676Z,40.43
2022-11-17T20:38:38.804Z,33.77
2022-11-17T20:41:06.252Z,34.47
2022-11-17T20:43:33.857Z,31.40
2022-11-17T20:46:01.515Z,29.43
2022-11-17T20:48:34.119Z,38.30
2022-11-17T20:51:01.374Z,31.03
2022-11-17T20:53:28.936Z,28.40
2022-11-17T20:55:57.550Z,26.97
2022-11-17T20:58:25.037Z,30.07
2022-11-17T21:00:52.275Z,25.87
2022-11-17T21:03:19.582Z,24.20
2022-11-17T21:05:58.830Z,27.57
2022-11-17T21:08:26.876Z,38.10
2022-11-17T21:10:57.351Z,34.33
2022-11-17T21:13:24.838Z,34.60
2022-11-17T21:16:10.753Z,37.03
2022-11-17T21:18:39.105Z,32.63
2022-11-17T21:21:09.785Z,36.47
2022-11-17T21:23:37.709Z,31.07
2022-11-17T21:26:05.698Z,39.73
2022-11-17T21:28:32.931Z,38.50
2022-11-17T21:31:05.551Z,34.03
2022-11-17T21:33:32.680Z,30.67
2022-11-17T21:36:08.179Z,35.13
2022-11-17T21:38:35.298Z,31.67
2022-11-17T21:41:06.408Z,28.37
2022-11-17T21:43:36.008Z,35.07
2022-11-17T21:46:03.703Z,30.97
2022-11-17T21:48:30.816Z,33.73
2022-11-17T21:50:57.963Z,32.83
2022-11-17T21:53:25.073Z,32.73
2022-11-17T21:55:52.230Z,30.53
2022-11-17T21:58:19.373Z,29.40
2022-11-17T22:00:46.546Z,26.60
2022-11-17T22:03:14.081Z,31.90
2022-11-17T22:05:41.418Z,31.77
2022-11-17T22:08:08.537Z,30.63
2022-11-17T22:10:36.342Z,26.53
2022-11-17T22:13:04.824Z,22.70
2022-11-17T22:15:31.949Z,19.93
2022-11-17T22:17:59.086Z,20.60
2022-11-17T22:20:26.322Z,17.73
2022-11-17T22:22:56.177Z,15.17
2022-11-17T22:25:44.162Z,21.57
2022-11-17T22:28:10.794Z,20.93
2022-11-17T22:30:39.354Z,31.47
2022-11-17T22:33:06.431Z,39.70
2022-11-17T22:35:33.540Z,36.30
2022-11-17T22:38:00.633Z,32.93
2022-11-17T22:40:27.738Z,48.07
2022-11-17T22:42:54.841Z,47.23
2022-11-17T22:45:22.002Z,32.03
2022-11-17T22:47:49.102Z,26.47
2022-11-17T22:50:16.502Z,24.00
2022-11-17T22:52:43.594Z,30.10
2022-11-17T22:55:10.716Z,27.87
2022-11-17T22:57:37.803Z,25.10
2022-11-17T23:00:05.872Z,30.00
2022-11-17T23:02:32.993Z,26.27
2022-11-17T23:05:00.097Z,29.57
2022-11-17T23:07:27.310Z,24.23
2022-11-17T23:09:54.599Z,26.10
2022-11-17T23:12:21.746Z,22.60
2022-11-17T23:14:48.824Z,27.33
2022-11-17T23:17:15.945Z,27.40
2022-11-17T23:19:43.055Z,24.93
2022-11-17T23:22:11.745Z,22.10
2022-11-17T23:24:38.866Z,18.47
2022-11-17T23:27:05.930Z,20.33
2022-11-17T23:29:33.060Z,20.13
2022-11-17T23:32:00.137Z,27.00
2022-11-17T23:34:27.678Z,29.43
2022-11-17T23:36:57.338Z,27.30
2022-11-17T23:39:27.990Z,24.83
2022-11-17T23:41:55.057Z,27.37
2022-11-17T23:44:22.168Z,33.37
2022-11-17T23:46:49.293Z,30.17
2022-11-17T23:49:16.829Z,26.30
2022-11-17T23:51:44.133Z,20.97
2022-11-17T23:54:12.379Z,24.17
2022-11-17T23:56:39.556Z,25.53
2022-11-17T23:59:08.071Z,25.30
